sensor_id;sensor_type;location;lat;lon;timestamp;pressure;altitude;pressure_sealevel;temperature;humidity
20115;BME280;10218;42.874;25.320;2023-06-04T00:02:20;97351.19;;;19.79;100.00
20115;BME280;10218;42.874;25.320;2023-06-04T00:04:48;97354.41;;;19.69;100.00
20115;BME280;10218;42.874;25.320;2023-06-04T00:07:15;97348.69;;;19.59;100.00
20115;BME280;10218;42.874;25.320;2023-06-04T00:09:42;97356.13;;;19.82;100.00
20115;BME280;10218;42.874;25.320;2023-06-04T00:12:11;97354.69;;;19.61;100.00
20115;BME280;10218;42.874;25.320;2023-06-04T00:14:38;97367.50;;;19.72;100.00
20115;BME280;10218;42.874;25.320;2023-06-04T00:17:05;97367.75;;;19.46;100.00
20115;BME280;10218;42.874;25.320;2023-06-04T00:19:32;97372.09;;;19.72;100.00
20115;BME280;10218;42.874;25.320;2023-06-04T00:22:00;97374.84;;;19.47;100.00
20115;BME280;10218;42.874;25.320;2023-06-04T00:24:27;97379.94;;;19.80;100.00
20115;BME280;10218;42.874;25.320;2023-06-04T00:26:55;97376.03;;;19.94;100.00
20115;BME280;10218;42.874;25.320;2023-06-04T00:29:22;97371.81;;;19.98;100.00
20115;BME280;10218;42.874;25.320;2023-06-04T00:31:49;97370.84;;;20.11;100.00
20115;BME280;10218;42.874;25.320;2023-06-04T00:34:17;97368.19;;;20.04;100.00
20115;BME280;10218;42.874;25.320;2023-06-04T00:36:44;97363.50;;;19.56;100.00
20115;BME280;10218;42.874;25.320;2023-06-04T00:39:12;97368.06;;;19.81;100.00
20115;BME280;10218;42.874;25.320;2023-06-04T00:41:39;97370.00;;;19.92;100.00
20115;BME280;10218;42.874;25.320;2023-06-04T00:44:06;97371.19;;;19.78;100.00
20115;BME280;10218;42.874;25.320;2023-06-04T00:46:34;97371.13;;;19.84;100.00
20115;BME280;10218;42.874;25.320;2023-06-04T00:49:04;97378.13;;;19.74;100.00
20115;BME280;10218;42.874;25.320;2023-06-04T00:51:32;97369.00;;;19.86;100.00
20115;BME280;10218;42.874;25.320;2023-06-04T00:54:02;97351.84;;;19.92;100.00
20115;BME280;10218;42.874;25.320;2023-06-04T00:56:36;97367.19;;;19.62;100.00
20115;BME280;10218;42.874;25.320;2023-06-04T00:59:05;97360.00;;;19.74;100.00
20115;BME280;10218;42.874;25.320;2023-06-04T01:01:42;97367.56;;;19.41;100.00
20115;BME280;10218;42.874;25.320;2023-06-04T01:04:29;97372.72;;;19.74;100.00
20115;BME280;10218;42.874;25.320;2023-06-04T01:07:00;97373.22;;;19.82;100.00
20115;BME280;10218;42.874;25.320;2023-06-04T01:09:29;97368.22;;;19.86;100.00
20115;BME280;10218;42.874;25.320;2023-06-04T01:11:57;97354.41;;;19.69;100.00
20115;BME280;10218;42.874;25.320;2023-06-04T01:14:25;97363.22;;;20.01;100.00
20115;BME280;10218;42.874;25.320;2023-06-04T01:16:57;97362.22;;;19.77;100.00
20115;BME280;10218;42.874;25.320;2023-06-04T01:25:03;97352.06;;;19.54;100.00
20115;BME280;10218;42.874;25.320;2023-06-04T01:27:31;97352.12;;;19.66;100.00
20115;BME280;10218;42.874;25.320;2023-06-04T01:29:59;97355.81;;;19.29;100.00
20115;BME280;10218;42.874;25.320;2023-06-04T01:32:27;97352.72;;;19.25;100.00
20115;BME280;10218;42.874;25.320;2023-06-04T01:34:55;97359.00;;;19.44;100.00
20115;BME280;10218;42.874;25.320;2023-06-04T01:37:23;97367.66;;;19.59;100.00
20115;BME280;10218;42.874;25.320;2023-06-04T01:39:50;97362.66;;;19.56;100.00
20115;BME280;10218;42.874;25.320;2023-06-04T01:42:17;97369.06;;;19.37;100.00
20115;BME280;10218;42.874;25.320;2023-06-04T01:44:44;97373.44;;;19.62;100.00
20115;BME280;10218;42.874;25.320;2023-06-04T01:47:13;97363.28;;;19.58;100.00
20115;BME280;10218;42.874;25.320;2023-06-04T01:49:41;97372.41;;;19.39;100.00
20115;BME280;10218;42.874;25.320;2023-06-04T01:52:08;97373.75;;;19.73;100.00
20115;BME280;10218;42.874;25.320;2023-06-04T01:54:35;97369.84;;;19.44;100.00
20115;BME280;10218;42.874;25.320;2023-06-04T01:57:02;97373.97;;;19.28;100.00
20115;BME280;10218;42.874;25.320;2023-06-04T01:59:30;97383.47;;;19.62;100.00
20115;BME280;10218;42.874;25.320;2023-06-04T02:01:58;97388.81;;;19.44;100.00
20115;BME280;10218;42.874;25.320;2023-06-04T02:04:26;97391.22;;;19.34;100.00
20115;BME280;10218;42.874;25.320;2023-06-04T02:06:53;97366.03;;;19.51;100.00
20115;BME280;10218;42.874;25.320;2023-06-04T02:09:20;97386.72;;;19.71;100.00
20115;BME280;10218;42.874;25.320;2023-06-04T02:11:48;97394.13;;;19.57;100.00
20115;BME280;10218;42.874;25.320;2023-06-04T02:14:14;97399.88;;;19.42;100.00
20115;BME280;10218;42.874;25.320;2023-06-04T02:16:42;97395.91;;;19.70;100.00
20115;BME280;10218;42.874;25.320;2023-06-04T02:19:09;97388.00;;;19.68;100.00
20115;BME280;10218;42.874;25.320;2023-06-04T02:21:39;97395.91;;;19.70;100.00
20115;BME280;10218;42.874;25.320;2023-06-04T02:24:06;97395.37;;;19.79;100.00
20115;BME280;10218;42.874;25.320;2023-06-04T02:26:33;97398.12;;;19.54;100.00
20115;BME280;10218;42.874;25.320;2023-06-04T02:29:00;97396.75;;;19.70;100.00
20115;BME280;10218;42.874;25.320;2023-06-04T02:31:29;97398.97;;;19.55;100.00
20115;BME280;10218;42.874;25.320;2023-06-04T02:33:56;97406.22;;;19.79;100.00
20115;BME280;10218;42.874;25.320;2023-06-04T02:36:23;97401.91;;;19.72;100.00
20115;BME280;10218;42.874;25.320;2023-06-04T02:38:50;97399.19;;;19.72;100.00
20115;BME280;10218;42.874;25.320;2023-06-04T02:41:18;97395.69;;;19.89;100.00
20115;BME280;10218;42.874;25.320;2023-06-04T02:43:45;97403.31;;;19.31;100.00
20115;BME280;10218;42.874;25.320;2023-06-04T02:46:12;97407.97;;;19.24;100.00
20115;BME280;10218;42.874;25.320;2023-06-04T02:48:39;97407.38;;;19.47;100.00
20115;BME280;10218;42.874;25.320;2023-06-04T02:51:06;97392.66;;;19.79;100.00
20115;BME280;10218;42.874;25.320;2023-06-04T02:53:37;97405.44;;;19.72;100.00
20115;BME280;10218;42.874;25.320;2023-06-04T02:56:04;97400.66;;;19.92;100.00
20115;BME280;10218;42.874;25.320;2023-06-04T02:58:31;97413.50;;;19.60;100.00
20115;BME280;10218;42.874;25.320;2023-06-04T03:00:58;97410.91;;;20.08;100.00
20115;BME280;10218;42.874;25.320;2023-06-04T03:03:25;97412.22;;;19.81;100.00
20115;BME280;10218;42.874;25.320;2023-06-04T03:05:53;97408.66;;;19.38;100.00
20115;BME280;10218;42.874;25.320;2023-06-04T03:08:21;97412.84;;;19.65;100.00
20115;BME280;10218;42.874;25.320;2023-06-04T03:10:48;97421.28;;;19.93;100.00
20115;BME280;10218;42.874;25.320;2023-06-04T03:13:15;97412.59;;;19.67;100.00
20115;BME280;10218;42.874;25.320;2023-06-04T03:15:42;97416.19;;;19.85;100.00
20115;BME280;10218;42.874;25.320;2023-06-04T03:18:09;97415.22;;;19.55;100.00
20115;BME280;10218;42.874;25.320;2023-06-04T03:20:36;97410.13;;;19.65;100.00
20115;BME280;10218;42.874;25.320;2023-06-04T03:23:05;97420.88;;;19.72;100.00
20115;BME280;10218;42.874;25.320;2023-06-04T03:25:33;97418.41;;;19.70;100.00
20115;BME280;10218;42.874;25.320;2023-06-04T03:28:00;97425.66;;;19.51;100.00
20115;BME280;10218;42.874;25.320;2023-06-04T03:30:27;97432.47;;;19.60;100.00
20115;BME280;10218;42.874;25.320;2023-06-04T03:32:54;97420.84;;;19.96;100.00
20115;BME280;10218;42.874;25.320;2023-06-04T03:35:22;97418.44;;;20.06;100.00
20115;BME280;10218;42.874;25.320;2023-06-04T03:37:49;97415.88;;;20.48;100.00
20115;BME280;10218;42.874;25.320;2023-06-04T03:40:16;97426.09;;;19.91;100.00
20115;BME280;10218;42.874;25.320;2023-06-04T03:42:44;97421.28;;;20.12;100.00
20115;BME280;10218;42.874;25.320;2023-06-04T03:45:12;97423.69;;;19.65;100.00
20115;BME280;10218;42.874;25.320;2023-06-04T03:47:39;97434.41;;;19.53;100.00
20115;BME280;10218;42.874;25.320;2023-06-04T03:50:07;97421.84;;;19.59;100.00
20115;BME280;10218;42.874;25.320;2023-06-04T03:52:35;97427.28;;;19.59;100.00
20115;BME280;10218;42.874;25.320;2023-06-04T03:55:03;97422.69;;;19.59;100.00
20115;BME280;10218;42.874;25.320;2023-06-04T03:57:30;97420.53;;;20.23;100.00
20115;BME280;10218;42.874;25.320;2023-06-04T04:00:02;97421.22;;;20.18;100.00
20115;BME280;10218;42.874;25.320;2023-06-04T04:02:42;97427.94;;;20.16;100.00
20115;BME280;10218;42.874;25.320;2023-06-04T04:05:11;97420.03;;;20.51;100.00
20115;BME280;10218;42.874;25.320;2023-06-04T04:07:39;97428.19;;;20.32;100.00
20115;BME280;10218;42.874;25.320;2023-06-04T04:10:07;97431.94;;;20.13;100.00
20115;BME280;10218;42.874;25.320;2023-06-04T04:12:34;97430.69;;;20.34;100.00
20115;BME280;10218;42.874;25.320;2023-06-04T04:15:02;97431.03;;;20.37;100.00
20115;BME280;10218;42.874;25.320;2023-06-04T04:17:29;97439.63;;;20.16;100.00
20115;BME280;10218;42.874;25.320;2023-06-04T04:19:59;97435.41;;;20.57;100.00
20115;BME280;10218;42.874;25.320;2023-06-04T04:22:26;97439.31;;;20.42;100.00
20115;BME280;10218;42.874;25.320;2023-06-04T04:24:54;97437.97;;;20.15;100.00
20115;BME280;10218;42.874;25.320;2023-06-04T04:27:21;97439.47;;;20.29;100.00
20115;BME280;10218;42.874;25.320;2023-06-04T04:29:49;97438.78;;;20.52;100.00
20115;BME280;10218;42.874;25.320;2023-06-04T04:32:18;97450.16;;;20.24;100.00
20115;BME280;10218;42.874;25.320;2023-06-04T04:34:53;97458.28;;;20.31;100.00
20115;BME280;10218;42.874;25.320;2023-06-04T04:37:22;97450.13;;;20.31;100.00
20115;BME280;10218;42.874;25.320;2023-06-04T04:39:49;97461.13;;;20.36;100.00
20115;BME280;10218;42.874;25.320;2023-06-04T04:42:19;97460.12;;;20.48;100.00
20115;BME280;10218;42.874;25.320;2023-06-04T04:44:47;97453.25;;;20.10;100.00
20115;BME280;10218;42.874;25.320;2023-06-04T04:47:16;97461.91;;;20.73;100.00
20115;BME280;10218;42.874;25.320;2023-06-04T04:49:43;97466.53;;;20.72;100.00
20115;BME280;10218;42.874;25.320;2023-06-04T04:52:10;97462.91;;;20.42;100.00
20115;BME280;10218;42.874;25.320;2023-06-04T04:54:38;97462.56;;;20.86;100.00
20115;BME280;10218;42.874;25.320;2023-06-04T04:57:05;97466.62;;;20.47;100.00
20115;BME280;10218;42.874;25.320;2023-06-04T04:59:39;97475.31;;;20.13;100.00
20115;BME280;10218;42.874;25.320;2023-06-04T05:02:06;97482.12;;;19.79;100.00
20115;BME280;10218;42.874;25.320;2023-06-04T05:04:33;97484.72;;;19.92;100.00
20115;BME280;10218;42.874;25.320;2023-06-04T05:07:01;97495.72;;;19.97;100.00
20115;BME280;10218;42.874;25.320;2023-06-04T05:09:28;97492.78;;;19.99;100.00
20115;BME280;10218;42.874;25.320;2023-06-04T05:11:56;97486.37;;;20.55;100.00
20115;BME280;10218;42.874;25.320;2023-06-04T05:14:23;97486.16;;;20.38;100.00
20115;BME280;10218;42.874;25.320;2023-06-04T05:16:50;97496.62;;;20.71;100.00
20115;BME280;10218;42.874;25.320;2023-06-04T05:19:19;97496.41;;;20.36;100.00
20115;BME280;10218;42.874;25.320;2023-06-04T05:21:47;97498.47;;;20.88;100.00
20115;BME280;10218;42.874;25.320;2023-06-04T05:24:15;97491.44;;;21.17;100.00
20115;BME280;10218;42.874;25.320;2023-06-04T05:26:43;97500.94;;;20.60;100.00
20115;BME280;10218;42.874;25.320;2023-06-04T05:29:11;97501.28;;;21.12;100.00
20115;BME280;10218;42.874;25.320;2023-06-04T05:31:39;97507.66;;;21.06;100.00
20115;BME280;10218;42.874;25.320;2023-06-04T05:34:07;97508.75;;;20.86;100.00
20115;BME280;10218;42.874;25.320;2023-06-04T05:36:35;97512.72;;;20.84;100.00
20115;BME280;10218;42.874;25.320;2023-06-04T05:39:02;97509.84;;;21.15;100.00
20115;BME280;10218;42.874;25.320;2023-06-04T05:41:30;97524.84;;;20.52;100.00
20115;BME280;10218;42.874;25.320;2023-06-04T05:43:57;97507.97;;;20.98;100.00
20115;BME280;10218;42.874;25.320;2023-06-04T05:46:24;97518.97;;;21.21;100.00
20115;BME280;10218;42.874;25.320;2023-06-04T05:48:52;97515.06;;;21.58;100.00
20115;BME280;10218;42.874;25.320;2023-06-04T05:51:20;97522.97;;;21.00;100.00
20115;BME280;10218;42.874;25.320;2023-06-04T05:53:48;97515.63;;;21.19;100.00
20115;BME280;10218;42.874;25.320;2023-06-04T05:56:16;97520.38;;;21.65;100.00
20115;BME280;10218;42.874;25.320;2023-06-04T05:58:51;97526.78;;;21.29;100.00
20115;BME280;10218;42.874;25.320;2023-06-04T06:01:19;97525.06;;;20.98;100.00
20115;BME280;10218;42.874;25.320;2023-06-04T06:03:47;97531.81;;;20.96;100.00
20115;BME280;10218;42.874;25.320;2023-06-04T06:06:14;97521.38;;;21.41;100.00
20115;BME280;10218;42.874;25.320;2023-06-04T06:08:41;97522.78;;;21.13;100.00
20115;BME280;10218;42.874;25.320;2023-06-04T06:11:09;97533.28;;;21.10;100.00
20115;BME280;10218;42.874;25.320;2023-06-04T06:13:36;97529.75;;;21.27;100.00
20115;BME280;10218;42.874;25.320;2023-06-04T06:16:03;97529.88;;;21.44;100.00
20115;BME280;10218;42.874;25.320;2023-06-04T06:18:31;97526.59;;;21.42;100.00
20115;BME280;10218;42.874;25.320;2023-06-04T06:20:59;97518.22;;;22.08;100.00
20115;BME280;10218;42.874;25.320;2023-06-04T06:23:26;97524.66;;;21.72;100.00
20115;BME280;10218;42.874;25.320;2023-06-04T06:25:54;97526.78;;;21.70;100.00
20115;BME280;10218;42.874;25.320;2023-06-04T06:28:22;97527.00;;;21.69;100.00
20115;BME280;10218;42.874;25.320;2023-06-04T06:30:49;97532.75;;;22.02;100.00
20115;BME280;10218;42.874;25.320;2023-06-04T06:33:17;97525.31;;;21.98;100.00
20115;BME280;10218;42.874;25.320;2023-06-04T06:35:49;97535.72;;;22.12;100.00
20115;BME280;10218;42.874;25.320;2023-06-04T06:38:16;97532.81;;;21.84;100.00
20115;BME280;10218;42.874;25.320;2023-06-04T06:40:44;97529.75;;;21.81;100.00
20115;BME280;10218;42.874;25.320;2023-06-04T06:43:11;97535.16;;;21.69;100.00
20115;BME280;10218;42.874;25.320;2023-06-04T06:45:38;97538.38;;;21.36;100.00
20115;BME280;10218;42.874;25.320;2023-06-04T06:48:05;97540.69;;;22.15;100.00
20115;BME280;10218;42.874;25.320;2023-06-04T06:50:32;97528.16;;;21.20;100.00
20115;BME280;10218;42.874;25.320;2023-06-04T06:53:03;97536.53;;;21.48;100.00
20115;BME280;10218;42.874;25.320;2023-06-04T06:55:30;97538.25;;;21.72;100.00
20115;BME280;10218;42.874;25.320;2023-06-04T06:57:58;97539.34;;;21.83;100.00
20115;BME280;10218;42.874;25.320;2023-06-04T07:00:28;97533.47;;;22.33;100.00
20115;BME280;10218;42.874;25.320;2023-06-04T07:02:55;97543.44;;;21.74;100.00
20115;BME280;10218;42.874;25.320;2023-06-04T07:05:23;97547.19;;;22.26;100.00
20115;BME280;10218;42.874;25.320;2023-06-04T07:07:50;97546.13;;;22.04;100.00
20115;BME280;10218;42.874;25.320;2023-06-04T07:10:17;97546.00;;;22.45;100.00
20115;BME280;10218;42.874;25.320;2023-06-04T07:12:44;97546.59;;;22.01;100.00
20115;BME280;10218;42.874;25.320;2023-06-04T07:15:11;97550.03;;;22.08;100.00
20115;BME280;10218;42.874;25.320;2023-06-04T07:17:39;97552.03;;;22.47;100.00
20115;BME280;10218;42.874;25.320;2023-06-04T07:20:06;97544.78;;;23.16;100.00
20115;BME280;10218;42.874;25.320;2023-06-04T07:22:35;97550.44;;;22.98;100.00
20115;BME280;10218;42.874;25.320;2023-06-04T07:25:02;97548.13;;;23.18;100.00
20115;BME280;10218;42.874;25.320;2023-06-04T07:27:29;97552.94;;;23.28;100.00
20115;BME280;10218;42.874;25.320;2023-06-04T07:29:57;97558.00;;;22.96;100.00
20115;BME280;10218;42.874;25.320;2023-06-04T07:32:24;97555.84;;;23.38;100.00
20115;BME280;10218;42.874;25.320;2023-06-04T07:34:51;97561.34;;;23.26;100.00
20115;BME280;10218;42.874;25.320;2023-06-04T07:37:18;97564.44;;;22.90;100.00
20115;BME280;10218;42.874;25.320;2023-06-04T07:39:45;97563.88;;;23.56;100.00
20115;BME280;10218;42.874;25.320;2023-06-04T07:42:13;97561.16;;;23.73;100.00
20115;BME280;10218;42.874;25.320;2023-06-04T07:44:40;97565.97;;;22.86;100.00
20115;BME280;10218;42.874;25.320;2023-06-04T07:47:07;97555.06;;;23.99;100.00
20115;BME280;10218;42.874;25.320;2023-06-04T07:49:34;97552.75;;;23.91;100.00
20115;BME280;10218;42.874;25.320;2023-06-04T07:52:03;97569.78;;;23.81;100.00
20115;BME280;10218;42.874;25.320;2023-06-04T07:54:30;97563.06;;;24.17;100.00
20115;BME280;10218;42.874;25.320;2023-06-04T07:56:58;97569.00;;;24.48;100.00
20115;BME280;10218;42.874;25.320;2023-06-04T07:59:25;97577.53;;;23.56;100.00
20115;BME280;10218;42.874;25.320;2023-06-04T08:01:52;97576.09;;;23.82;100.00
20115;BME280;10218;42.874;25.320;2023-06-04T08:04:20;97575.31;;;23.70;100.00
20115;BME280;10218;42.874;25.320;2023-06-04T08:06:47;97578.47;;;23.95;100.00
20115;BME280;10218;42.874;25.320;2023-06-04T08:09:14;97576.69;;;23.56;100.00
20115;BME280;10218;42.874;25.320;2023-06-04T08:11:42;97576.00;;;23.77;100.00
20115;BME280;10218;42.874;25.320;2023-06-04T08:14:12;97580.97;;;23.12;100.00
20115;BME280;10218;42.874;25.320;2023-06-04T08:16:40;97581.03;;;23.28;100.00
20115;BME280;10218;42.874;25.320;2023-06-04T08:19:07;97591.66;;;23.41;100.00
20115;BME280;10218;42.874;25.320;2023-06-04T08:21:35;97583.25;;;23.03;100.00
20115;BME280;10218;42.874;25.320;2023-06-04T08:24:02;97585.28;;;22.61;100.00
20115;BME280;10218;42.874;25.320;2023-06-04T08:26:30;97587.44;;;22.59;100.00
20115;BME280;10218;42.874;25.320;2023-06-04T08:28:57;97589.41;;;22.98;100.00
20115;BME280;10218;42.874;25.320;2023-06-04T08:31:24;97580.91;;;22.25;100.00
20115;BME280;10218;42.874;25.320;2023-06-04T08:33:51;97585.28;;;22.61;100.00
20115;BME280;10218;42.874;25.320;2023-06-04T08:36:18;97590.38;;;22.81;100.00
20115;BME280;10218;42.874;25.320;2023-06-04T08:38:46;97592.50;;;22.67;100.00
20115;BME280;10218;42.874;25.320;2023-06-04T08:44:05;97595.09;;;22.97;100.00
20115;BME280;10218;42.874;25.320;2023-06-04T08:46:40;97595.84;;;22.57;100.00
20115;BME280;10218;42.874;25.320;2023-06-04T08:49:07;97595.97;;;22.74;100.00
20115;BME280;10218;42.874;25.320;2023-06-04T08:51:37;97587.50;;;23.39;100.00
20115;BME280;10218;42.874;25.320;2023-06-04T08:54:05;97597.44;;;23.57;100.00
20115;BME280;10218;42.874;25.320;2023-06-04T08:56:35;97590.81;;;23.01;100.00
20115;BME280;10218;42.874;25.320;2023-06-04T08:59:04;97597.81;;;23.09;100.00
20115;BME280;10218;42.874;25.320;2023-06-04T09:01:34;97607.78;;;23.03;100.00
20115;BME280;10218;42.874;25.320;2023-06-04T09:04:05;97611.25;;;22.75;100.00
20115;BME280;10218;42.874;25.320;2023-06-04T09:06:35;97606.28;;;22.49;100.00
20115;BME280;10218;42.874;25.320;2023-06-04T09:09:05;97605.44;;;22.60;100.00
20115;BME280;10218;42.874;25.320;2023-06-04T09:11:41;97610.25;;;23.05;100.00
20115;BME280;10218;42.874;25.320;2023-06-04T09:14:14;97612.28;;;22.86;100.00
20115;BME280;10218;42.874;25.320;2023-06-04T09:16:44;97605.91;;;22.57;100.00
20115;BME280;10218;42.874;25.320;2023-06-04T09:19:12;97616.28;;;23.07;100.00
20115;BME280;10218;42.874;25.320;2023-06-04T09:21:52;97618.34;;;22.88;100.00
20115;BME280;10218;42.874;25.320;2023-06-04T09:24:20;97604.50;;;22.78;100.00
20115;BME280;10218;42.874;25.320;2023-06-04T09:26:48;97609.56;;;22.86;100.00
20115;BME280;10218;42.874;25.320;2023-06-04T09:29:17;97617.38;;;22.94;100.00
20115;BME280;10218;42.874;25.320;2023-06-04T09:31:57;97618.81;;;22.61;100.00
20115;BME280;10218;42.874;25.320;2023-06-04T09:34:30;97618.91;;;22.67;100.00
20115;BME280;10218;42.874;25.320;2023-06-04T09:36:58;97628.53;;;22.34;100.00
20115;BME280;10218;42.874;25.320;2023-06-04T09:39:25;97618.94;;;22.78;100.00
20115;BME280;10218;42.874;25.320;2023-06-04T09:42:01;97624.34;;;22.08;100.00
20115;BME280;10218;42.874;25.320;2023-06-04T09:44:29;97623.19;;;22.39;100.00
20115;BME280;10218;42.874;25.320;2023-06-04T09:46:57;97628.06;;;22.49;100.00
20115;BME280;10218;42.874;25.320;2023-06-04T09:49:24;97624.75;;;22.58;100.00
20115;BME280;10218;42.874;25.320;2023-06-04T09:51:51;97617.28;;;22.42;100.00
20115;BME280;10218;42.874;25.320;2023-06-04T09:54:18;97622.44;;;22.09;100.00
20115;BME280;10218;42.874;25.320;2023-06-04T09:56:45;97624.25;;;22.61;100.00
20115;BME280;10218;42.874;25.320;2023-06-04T09:59:13;97636.31;;;21.89;100.00
20115;BME280;10218;42.874;25.320;2023-06-04T10:01:41;97626.38;;;22.25;100.00
20115;BME280;10218;42.874;25.320;2023-06-04T10:04:09;97636.09;;;21.91;100.00
20115;BME280;10218;42.874;25.320;2023-06-04T10:06:39;97639.00;;;21.77;100.00
20115;BME280;10218;42.874;25.320;2023-06-04T10:09:08;97647.78;;;22.21;100.00
20115;BME280;10218;42.874;25.320;2023-06-04T10:11:50;97640.19;;;21.82;100.00
20115;BME280;10218;42.874;25.320;2023-06-04T10:14:41;97644.19;;;21.67;100.00
20115;BME280;10218;42.874;25.320;2023-06-04T10:17:11;97650.38;;;20.65;100.00
20115;BME280;10218;42.874;25.320;2023-06-04T10:19:42;97651.28;;;20.59;100.00
20115;BME280;10218;42.874;25.320;2023-06-04T10:22:10;97653.06;;;20.47;100.00
20115;BME280;10218;42.874;25.320;2023-06-04T10:24:38;97663.78;;;20.11;100.00
20115;BME280;10218;42.874;25.320;2023-06-04T10:27:06;97655.56;;;19.92;100.00
20115;BME280;10218;42.874;25.320;2023-06-04T10:29:37;97665.28;;;19.75;100.00
20115;BME280;10218;42.874;25.320;2023-06-04T10:32:05;97667.91;;;19.88;100.00
20115;BME280;10218;42.874;25.320;2023-06-04T10:34:32;97671.78;;;19.68;100.00
20115;BME280;10218;42.874;25.320;2023-06-04T10:37:00;97655.91;;;19.71;100.00
20115;BME280;10218;42.874;25.320;2023-06-04T10:39:28;97661.06;;;20.11;100.00
20115;BME280;10218;42.874;25.320;2023-06-04T10:44:44;97670.44;;;19.45;100.00
20115;BME280;10218;42.874;25.320;2023-06-04T10:47:38;97666.63;;;19.59;100.00
20115;BME280;10218;42.874;25.320;2023-06-04T10:50:12;97661.03;;;19.86;100.00
20115;BME280;10218;42.874;25.320;2023-06-04T10:52:54;97669.09;;;19.61;100.00
20115;BME280;10218;42.874;25.320;2023-06-04T10:55:21;97661.59;;;20.26;100.00
20115;BME280;10218;42.874;25.320;2023-06-04T10:58:07;97651.44;;;19.83;100.00
20115;BME280;10218;42.874;25.320;2023-06-04T11:00:39;97649.78;;;20.14;100.00
20115;BME280;10218;42.874;25.320;2023-06-04T11:03:10;97650.06;;;20.05;100.00
20115;BME280;10218;42.874;25.320;2023-06-04T11:05:45;97641.88;;;20.62;100.00
20115;BME280;10218;42.874;25.320;2023-06-04T11:08:13;97658.25;;;20.24;100.00
20115;BME280;10218;42.874;25.320;2023-06-04T11:10:44;97663.44;;;20.57;100.00
20115;BME280;10218;42.874;25.320;2023-06-04T11:13:12;97664.97;;;20.21;100.00
20115;BME280;10218;42.874;25.320;2023-06-04T11:15:46;97660.16;;;20.48;100.00
20115;BME280;10218;42.874;25.320;2023-06-04T11:18:20;97659.59;;;20.64;100.00
20115;BME280;10218;42.874;25.320;2023-06-04T11:20:58;97659.31;;;20.72;100.00
20115;BME280;10218;42.874;25.320;2023-06-04T11:23:25;97661.56;;;20.75;100.00
20115;BME280;10218;42.874;25.320;2023-06-04T11:25:53;97658.03;;;20.93;100.00
20115;BME280;10218;42.874;25.320;2023-06-04T11:28:20;97665.78;;;21.62;100.00
20115;BME280;10218;42.874;25.320;2023-06-04T11:31:02;97670.75;;;21.17;100.00
20115;BME280;10218;42.874;25.320;2023-06-04T11:33:30;97658.88;;;21.30;100.00
20115;BME280;10218;42.874;25.320;2023-06-04T11:35:57;97656.78;;;21.14;100.00
20115;BME280;10218;42.874;25.320;2023-06-04T11:38:24;97659.31;;;21.63;100.00
20115;BME280;10218;42.874;25.320;2023-06-04T11:40:57;97650.66;;;21.66;100.00
20115;BME280;10218;42.874;25.320;2023-06-04T11:43:24;97660.50;;;21.67;100.00
20115;BME280;10218;42.874;25.320;2023-06-04T11:45:53;97655.50;;;21.64;100.00
20115;BME280;10218;42.874;25.320;2023-06-04T11:48:20;97667.00;;;21.66;100.00
20115;BME280;10218;42.874;25.320;2023-06-04T11:50:47;97662.16;;;21.98;100.00
20115;BME280;10218;42.874;25.320;2023-06-04T11:53:14;97661.03;;;21.88;100.00
20115;BME280;10218;42.874;25.320;2023-06-04T11:55:42;97672.62;;;21.53;100.00
20115;BME280;10218;42.874;25.320;2023-06-04T11:58:09;97678.53;;;21.32;100.00
20115;BME280;10218;42.874;25.320;2023-06-04T12:00:37;97656.53;;;21.52;100.00
20115;BME280;10218;42.874;25.320;2023-06-04T12:03:04;97675.34;;;21.17;100.00
20115;BME280;10218;42.874;25.320;2023-06-04T12:05:32;97678.28;;;20.97;100.00
20115;BME280;10218;42.874;25.320;2023-06-04T12:08:06;97686.59;;;21.20;100.00
20115;BME280;10218;42.874;25.320;2023-06-04T12:10:39;97692.37;;;21.06;100.00
20115;BME280;10218;42.874;25.320;2023-06-04T12:13:07;97687.31;;;20.91;100.00
20115;BME280;10218;42.874;25.320;2023-06-04T12:15:35;97694.00;;;20.70;100.00
20115;BME280;10218;42.874;25.320;2023-06-04T12:18:02;97693.88;;;20.59;100.00
20115;BME280;10218;42.874;25.320;2023-06-04T12:20:36;97696.50;;;20.90;100.00
20115;BME280;10218;42.874;25.320;2023-06-04T12:23:05;97687.66;;;20.76;100.00
20115;BME280;10218;42.874;25.320;2023-06-04T12:25:34;97697.97;;;20.92;100.00
20115;BME280;10218;42.874;25.320;2023-06-04T12:28:04;97699.09;;;20.60;100.00
20115;BME280;10218;42.874;25.320;2023-06-04T12:30:39;97693.75;;;20.47;100.00
20115;BME280;10218;42.874;25.320;2023-06-04T12:33:07;97700.28;;;20.89;100.00
20115;BME280;10218;42.874;25.320;2023-06-04T12:35:34;97713.78;;;20.21;100.00
20115;BME280;10218;42.874;25.320;2023-06-04T12:38:04;97714.00;;;20.51;100.00
20115;BME280;10218;42.874;25.320;2023-06-04T12:40:32;97716.97;;;20.43;100.00
20115;BME280;10218;42.874;25.320;2023-06-04T12:42:59;97706.13;;;21.11;100.00
20115;BME280;10218;42.874;25.320;2023-06-04T12:45:27;97710.62;;;20.99;100.00
20115;BME280;10218;42.874;25.320;2023-06-04T12:47:54;97705.22;;;20.74;100.00
20115;BME280;10218;42.874;25.320;2023-06-04T12:50:21;97707.53;;;21.13;100.00
20115;BME280;10218;42.874;25.320;2023-06-04T12:52:49;97706.91;;;21.18;100.00
20115;BME280;10218;42.874;25.320;2023-06-04T12:55:16;97712.06;;;20.58;100.00
20115;BME280;10218;42.874;25.320;2023-06-04T12:57:44;97715.16;;;20.62;100.00
20115;BME280;10218;42.874;25.320;2023-06-04T13:00:13;97713.94;;;20.82;100.00